DAOV

Ghriss Airport

Algeria
METAR DAOV 191200Z 36004KT 9999 SCT030 SCT233 31/18 Q1021
Observed Flight Rules
Sep-19 @ 12:00 UTC (54 minutes ago) Visual Flight Rules
Wind Visibility Clouds
360° at 4 knots 10,000+ meters
  • Scattered at 3,000' AGL
  • Scattered at 23,300' AGL
Temperatures Readings
Current 31°C / 88°F
Dewpoint 18°C / 64°F
Humidity 46%
Altimeter 30.15" Hg
Pressure 1021 hPa
Elevation 514
METAR DAOV 191200Z 36004KT 9999 SCT030 SCT233 31/18 Q1021
Observed Flight Rules
Sep-19 @ 12:00 UTC
(54 minutes ago)
VFR
Wind Visibility
360° at 4 knots 10,000+ meters
Clouds
  • Scattered at 3,000' AGL
  • Scattered at 23,300' AGL
Temperature Dewpoint
31°C / 88°F 18°C / 64°F
Humidity Altimeter Pressure
46% 30.15" Hg 1021 hPa